Brookpark, Ohio
Current Conditions -  °F | °C
As of 3:51 PM on Friday 24 Oct 2014 (Local Time) from KCLE Reporting Station
Few Clouds Few Clouds  
Wind Chill: 62°   Ceiling: Unl
Heat Index: 62°   Visibility: 10mi
Dew Point: 41°   Wind: 9mph
Humidity: 46%   Direction: 260°W
Pressure: 30.02"   Gusts: NA
Location:  41.3979°N, 81.8118°W
Report Text: KCLE 241951Z 26008KT 10SM FEW250 17/05 A3002 RMK AO2 SLP169 T01670050 $
Loading
Personal Weather Stations






























Interactive Weather Map
Tropical Storm Tracking
New forecast layout! Learn more

10-Day Weather Forecast

Advertisements
Track Severe Weather on mobile